Time;durP1;ratioP1;P1;durP2;ratioP2;P2;SDS_P1;SDS_P2;PMS_P1;PMS_P2;Temp;Humidity;BMP_temperature;BMP_pressure;BME280_temperature;BME280_humidity;BME280_pressure;Samples;Min_cycle;Max_cycle;Signal;HPM_P1;HPM_P2
2020/12/20 00:00:53;;;;;;;;;;;;;;;4.06;80.03;99089.72;1708993;82;20203;-86
2020/12/20 00:03:40;;;;;;;;;;;;;;;4.09;80.01;99088.34;1701106;84;24921;-87
2020/12/20 00:06:27;;;;;;;;;;;;;;;3.99;80.01;99083.03;1699355;84;22078;-87
2020/12/20 00:09:15;;;;;;;;;;;;;;;3.96;79.99;99087.89;1698328;84;26145;-87
2020/12/20 00:12:02;;;;;;;;;;;;;;;3.97;79.99;99083.11;1697123;83;25474;-87
2020/12/20 00:14:49;;;;;;;;;;;;;;;3.93;79.95;99084.08;1695330;84;20393;-87
2020/12/20 00:17:42;;;;;;;;;;;;;;;3.93;79.92;99076.80;1698013;83;25770;-86
2020/12/20 00:20:30;;;;;;;;;;;;;;;3.90;79.91;99082.05;1695519;84;22174;-87
2020/12/20 00:23:17;;;;;;;;;;;;;;;3.88;79.90;99082.54;1708297;81;26148;-87
2020/12/20 00:26:04;;;;;;;;;;;;;;;3.89;79.88;99079.06;1671636;84;24363;-87
2020/12/20 00:28:50;;;;;;;;;;;;;;;3.90;79.86;99086.79;1697001;84;20278;-87
2020/12/20 00:31:38;;;;;;;;;;;;;;;3.87;79.84;99076.55;1673159;84;24963;-88
2020/12/20 00:34:24;;;;;;;;;;;;;;;3.85;79.85;99086.09;1697725;84;22169;-88
2020/12/20 00:37:11;;;;;;;;;;;;;;;3.87;79.83;99088.64;1698308;84;26386;-88
2020/12/20 00:39:57;;;;;;;;;;;;;;;3.90;79.83;99089.82;1698127;84;25668;-87
2020/12/20 00:42:44;;;;;;;;;;;;;;;3.86;79.82;99086.94;1698706;84;20282;-88
2020/12/20 00:45:31;;;;;;;;;;;;;;;3.78;79.82;99086.73;1697623;84;25115;-87
2020/12/20 00:48:18;;;;;;;;;;;;;;;3.75;79.80;99093.76;1695304;84;23128;-87
2020/12/20 00:51:05;;;;;;;;;;;;;;;3.70;79.78;99093.91;1698239;84;26090;-87
2020/12/20 00:53:51;;;;;;;;;;;;;;;3.69;79.76;99098.69;1697793;84;24618;-88
2020/12/20 00:56:39;;;;;;;;;;;;;;;3.67;79.73;99100.46;1663130;84;20648;-87
2020/12/20 00:59:26;;;;;;;;;;;;;;;3.65;79.72;99101.42;1695959;84;25051;-88
2020/12/20 01:02:12;;;;;;;;;;;;;;;3.65;79.70;99102.72;1695568;84;22105;-88
2020/12/20 01:05:01;;;;;;;;;;;;;;;3.63;79.67;99096.73;1696604;84;26209;-87
2020/12/20 01:07:48;;;;;;;;;;;;;;;3.60;79.67;99101.53;1697740;84;24796;-88
2020/12/20 01:10:34;;;;;;;;;;;;;;;3.56;79.66;99097.36;1697246;84;20487;-88
2020/12/20 01:13:23;;;;;;;;;;;;;;;3.52;79.65;99094.92;1675584;84;24965;-87
2020/12/20 01:16:10;;;;;;;;;;;;;;;3.48;79.63;99089.00;1696375;84;22378;-87
2020/12/20 01:18:57;;;;;;;;;;;;;;;3.49;79.61;99079.50;1699609;83;26121;-87
2020/12/20 01:21:43;;;;;;;;;;;;;;;3.44;79.60;99080.09;1698248;84;24644;-87
2020/12/20 01:24:31;;;;;;;;;;;;;;;3.45;79.57;99075.30;1697365;84;20265;-87
2020/12/20 01:27:18;;;;;;;;;;;;;;;3.40;79.59;99074.59;1698851;84;24910;-87
2020/12/20 01:30:06;;;;;;;;;;;;;;;3.35;79.55;99074.30;1698410;84;22135;-87
2020/12/20 01:32:53;;;;;;;;;;;;;;;3.38;79.56;99079.84;1671506;84;26790;-87
2020/12/20 01:35:39;;;;;;;;;;;;;;;3.33;79.55;99070.89;1697937;84;24962;-87
2020/12/20 01:38:13;;;;;;;;;;;;;;;3.28;79.54;99071.93;1698601;84;20299;-87
2020/12/20 01:41:04;;;;;;;;;;;;;;;3.26;79.51;99069.86;1700582;83;24983;-87
2020/12/20 01:43:51;;;;;;;;;;;;;;;3.29;79.51;99067.16;1712452;82;22838;-87
2020/12/20 01:46:42;;;;;;;;;;;;;;;3.32;79.51;99059.33;1674067;84;26150;-87
2020/12/20 01:49:29;;;;;;;;;;;;;;;3.33;79.48;99062.28;1693347;83;24634;-87
2020/12/20 01:52:15;;;;;;;;;;;;;;;3.37;79.47;99070.38;1698109;84;20278;-87
2020/12/20 01:55:03;;;;;;;;;;;;;;;3.38;79.47;99073.81;1676311;84;24891;-87
2020/12/20 01:57:50;;;;;;;;;;;;;;;3.27;79.46;99080.61;1675325;85;22133;-86
2020/12/20 02:00:36;;;;;;;;;;;;;;;3.26;79.45;99075.03;1697673;84;26127;-87
2020/12/20 02:03:23;;;;;;;;;;;;;;;3.23;79.45;99078.98;1676296;85;24215;-86
2020/12/20 02:06:11;;;;;;;;;;;;;;;3.24;79.44;99084.56;1677653;85;20444;-87
2020/12/20 02:08:58;;;;;;;;;;;;;;;3.25;79.43;99079.80;1651291;86;25144;-87
2020/12/20 02:11:44;;;;;;;;;;;;;;;3.27;79.44;99080.61;1701023;84;22152;-86
2020/12/20 02:14:33;;;;;;;;;;;;;;;3.29;79.44;99076.22;1678095;84;26175;-87
2020/12/20 02:17:19;;;;;;;;;;;;;;;3.26;79.45;99077.17;1692824;84;24723;-87
2020/12/20 02:20:06;;;;;;;;;;;;;;;3.25;79.46;99079.80;1708722;83;20261;-87
2020/12/20 02:22:52;;;;;;;;;;;;;;;3.29;79.45;99085.27;1694675;84;24879;-87
2020/12/20 02:25:39;;;;;;;;;;;;;;;3.30;79.45;99079.20;1692813;84;22113;-87
2020/12/20 02:28:25;;;;;;;;;;;;;;;3.36;79.48;99080.31;1693754;83;26145;-87
2020/12/20 02:31:12;;;;;;;;;;;;;;;3.42;79.49;99071.52;1667996;84;23582;-87
2020/12/20 02:33:59;;;;;;;;;;;;;;;3.45;79.50;99072.27;1664480;84;20576;-87
2020/12/20 02:36:45;;;;;;;;;;;;;;;3.43;79.53;99066.31;1694164;84;25756;-87
2020/12/20 02:39:36;;;;;;;;;;;;;;;3.42;79.52;99066.34;1667197;84;22163;-87
2020/12/20 02:42:23;;;;;;;;;;;;;;;3.49;79.54;99071.27;1694948;84;25553;-88
2020/12/20 02:45:09;;;;;;;;;;;;;;;3.57;79.53;99070.59;1692279;83;24812;-88
2020/12/20 02:47:55;;;;;;;;;;;;;;;3.51;79.55;99071.23;1695466;84;20271;-88
2020/12/20 02:50:47;;;;;;;;;;;;;;;3.44;79.56;99074.45;1693512;84;24981;-88
2020/12/20 02:53:35;;;;;;;;;;;;;;;3.47;79.57;99078.69;1693141;84;22145;-88
2020/12/20 02:56:23;;;;;;;;;;;;;;;3.54;79.57;99070.70;1693186;84;26133;-88
2020/12/20 02:59:11;;;;;;;;;;;;;;;3.57;79.61;99073.19;1695967;84;25542;-88
2020/12/20 03:01:58;;;;;;;;;;;;;;;3.53;79.62;99068.16;1667438;84;20291;-89
2020/12/20 03:04:44;;;;;;;;;;;;;;;3.53;79.64;99075.92;1694745;84;25138;-88
2020/12/20 03:07:33;;;;;;;;;;;;;;;3.55;79.65;99074.11;1695031;84;22176;-88
2020/12/20 03:10:21;;;;;;;;;;;;;;;3.55;79.67;99068.48;1664241;84;25948;-88
2020/12/20 03:13:08;;;;;;;;;;;;;;;3.61;79.68;99073.48;1668977;84;24616;-88
2020/12/20 03:15:55;;;;;;;;;;;;;;;3.68;79.71;99071.55;1696628;84;20357;-88
2020/12/20 03:18:42;;;;;;;;;;;;;;;3.73;79.72;99071.80;1677362;84;24925;-88
2020/12/20 03:21:29;;;;;;;;;;;;;;;3.82;79.75;99065.94;1665470;85;22193;-89
2020/12/20 03:24:15;;;;;;;;;;;;;;;3.90;79.75;99063.48;1709342;83;26193;-88
2020/12/20 03:27:04;;;;;;;;;;;;;;;4.01;79.78;99064.42;1707564;83;24808;-88
2020/12/20 03:29:51;;;;;;;;;;;;;;;4.04;79.80;99063.02;1708488;83;20406;-88
2020/12/20 03:32:37;;;;;;;;;;;;;;;4.10;79.81;99065.41;1710173;82;24915;-88
2020/12/20 03:35:26;;;;;;;;;;;;;;;4.13;79.83;99067.45;1710362;82;22077;-87
2020/12/20 03:38:12;;;;;;;;;;;;;;;4.11;79.84;99061.47;1709207;83;27196;-88
2020/12/20 03:40:46;;;;;;;;;;;;;;;4.17;79.87;99065.59;1680357;83;25294;-88
2020/12/20 03:43:37;;;;;;;;;;;;;;;4.05;79.87;99069.45;1711537;82;20364;-88
2020/12/20 03:46:23;;;;;;;;;;;;;;;3.94;79.87;99065.52;1709632;83;24988;-88
2020/12/20 03:49:10;;;;;;;;;;;;;;;4.03;79.83;99064.78;1710399;83;22114;-88
2020/12/20 03:51:57;;;;;;;;;;;;;;;4.06;79.83;99057.34;1706281;83;26354;-88
2020/12/20 03:54:44;;;;;;;;;;;;;;;4.11;79.80;99053.70;1688747;83;23896;-88
2020/12/20 03:57:30;;;;;;;;;;;;;;;4.22;79.78;99050.74;1711196;82;20371;-88
2020/12/20 04:00:20;;;;;;;;;;;;;;;4.36;79.76;99053.72;1707978;83;25823;-88
2020/12/20 04:03:10;;;;;;;;;;;;;;;4.44;79.76;99058.17;1709717;83;22148;-88
2020/12/20 04:05:57;;;;;;;;;;;;;;;4.55;79.73;99059.08;1707811;83;26178;-88
2020/12/20 04:08:46;;;;;;;;;;;;;;;4.57;79.75;99062.03;1709769;83;24747;-87
2020/12/20 04:11:32;;;;;;;;;;;;;;;4.56;79.74;99057.74;1695218;83;20279;-88
2020/12/20 04:14:19;;;;;;;;;;;;;;;4.55;79.74;99066.41;1709992;83;25097;-88
2020/12/20 04:17:05;;;;;;;;;;;;;;;4.56;79.73;99064.22;1709909;83;22350;-87
2020/12/20 04:19:54;;;;;;;;;;;;;;;4.52;79.72;99059.20;1700930;83;26115;-88
2020/12/20 04:22:41;;;;;;;;;;;;;;;4.47;79.71;99054.16;1694608;84;24693;-87
2020/12/20 04:25:28;;;;;;;;;;;;;;;4.47;79.65;99052.05;1666248;84;20522;-87
2020/12/20 04:28:17;;;;;;;;;;;;;;;4.37;79.65;99055.39;1698778;83;25098;-87
2020/12/20 04:31:03;;;;;;;;;;;;;;;4.29;79.61;99048.80;1662758;84;22135;-87
2020/12/20 04:33:52;;;;;;;;;;;;;;;4.28;79.58;99047.95;1698934;84;26132;-87
2020/12/20 04:36:39;;;;;;;;;;;;;;;4.27;79.52;99051.42;1700002;84;24587;-87
2020/12/20 04:39:27;;;;;;;;;;;;;;;4.17;79.50;99050.06;1697234;84;20415;-88
2020/12/20 04:42:13;;;;;;;;;;;;;;;4.13;79.46;99040.70;1700945;83;25146;-88
2020/12/20 04:45:00;;;;;;;;;;;;;;;4.09;79.46;99041.72;1695801;84;22293;-89
2020/12/20 04:47:50;;;;;;;;;;;;;;;4.03;79.43;99038.89;1702254;82;25528;-89
2020/12/20 04:50:37;;;;;;;;;;;;;;;3.98;79.42;99044.64;1699242;83;24871;-88
2020/12/20 04:53:32;;;;;;;;;;;;;;;3.91;79.38;99052.23;1696000;84;20337;-88
2020/12/20 04:56:18;;;;;;;;;;;;;;;3.86;79.37;99054.14;1700623;84;25038;-88
2020/12/20 04:59:06;;;;;;;;;;;;;;;3.84;79.34;99057.66;1699494;84;22174;-87
2020/12/20 05:01:53;;;;;;;;;;;;;;;3.76;79.30;99056.16;1700082;84;26139;-88
2020/12/20 05:04:39;;;;;;;;;;;;;;;3.71;79.33;99055.91;1697285;83;24430;-88
2020/12/20 05:07:27;;;;;;;;;;;;;;;3.70;79.32;99055.09;1699856;84;20285;-88
2020/12/20 05:10:13;;;;;;;;;;;;;;;3.74;79.30;99059.70;1696993;84;24988;-88
2020/12/20 05:12:59;;;;;;;;;;;;;;;3.81;79.29;99061.66;1702098;84;22253;-88
2020/12/20 05:15:46;;;;;;;;;;;;;;;3.78;79.30;99060.84;1697944;84;26312;-88
2020/12/20 05:18:33;;;;;;;;;;;;;;;3.81;79.30;99058.63;1701947;83;24616;-88
2020/12/20 05:21:19;;;;;;;;;;;;;;;3.86;79.27;99058.02;1709440;83;20538;-89
2020/12/20 05:24:06;;;;;;;;;;;;;;;3.88;79.30;99052.77;1712467;83;24906;-89
2020/12/20 05:26:52;;;;;;;;;;;;;;;3.91;79.29;99060.45;1703146;82;22216;-89
2020/12/20 05:29:38;;;;;;;;;;;;;;;3.83;79.30;99063.72;1698405;84;25623;-89
2020/12/20 05:32:24;;;;;;;;;;;;;;;3.76;79.30;99058.74;1700039;84;26291;-88
2020/12/20 05:35:10;;;;;;;;;;;;;;;3.81;79.29;99065.54;1698759;83;20409;-88
2020/12/20 05:37:58;;;;;;;;;;;;;;;3.75;79.29;99067.88;1698791;84;24926;-88
2020/12/20 05:40:49;;;;;;;;;;;;;;;3.73;79.29;99074.39;1697958;84;22394;-88
2020/12/20 05:43:35;;;;;;;;;;;;;;;3.69;79.30;99072.80;1702859;82;26219;-88
2020/12/20 05:46:23;;;;;;;;;;;;;;;3.60;79.27;99077.42;1680139;83;24456;-88
2020/12/20 05:49:09;;;;;;;;;;;;;;;3.61;79.25;99077.80;1702718;82;20405;-88
2020/12/20 05:51:56;;;;;;;;;;;;;;;3.51;79.26;99078.55;1695690;84;24915;-88
2020/12/20 05:54:44;;;;;;;;;;;;;;;3.35;79.22;99080.77;1696687;84;22137;-88
2020/12/20 05:57:33;;;;;;;;;;;;;;;3.25;79.25;99081.09;1698394;84;26177;-88
2020/12/20 06:00:20;;;;;;;;;;;;;;;3.23;79.19;99082.86;1675567;84;24428;-88
2020/12/20 06:03:06;;;;;;;;;;;;;;;3.25;79.15;99077.20;1706323;83;20265;-88
2020/12/20 06:05:53;;;;;;;;;;;;;;;3.18;79.14;99079.56;1698065;84;24907;-88
2020/12/20 06:08:40;;;;;;;;;;;;;;;3.19;79.11;99076.95;1698628;84;22121;-87
2020/12/20 06:11:30;;;;;;;;;;;;;;;3.30;79.07;99077.91;1698097;84;26134;-87
2020/12/20 06:14:19;;;;;;;;;;;;;;;3.44;79.05;99079.62;1698359;84;25638;-87
2020/12/20 06:17:06;;;;;;;;;;;;;;;3.44;79.04;99074.45;1703701;82;20297;-87
2020/12/20 06:19:53;;;;;;;;;;;;;;;3.44;79.04;99078.33;1675825;83;25104;-87
2020/12/20 06:22:40;;;;;;;;;;;;;;;3.43;79.01;99081.83;1642029;85;21979;-87
2020/12/20 06:25:27;;;;;;;;;;;;;;;3.40;79.00;99085.79;1662983;85;26121;-87
2020/12/20 06:28:17;;;;;;;;;;;;;;;3.38;78.97;99087.59;1666989;85;24663;-87
2020/12/20 06:31:04;;;;;;;;;;;;;;;3.32;78.97;99082.16;1663181;85;20313;-87
2020/12/20 06:33:51;;;;;;;;;;;;;;;3.32;78.95;99092.95;1660893;85;24759;-87
2020/12/20 06:36:38;;;;;;;;;;;;;;;3.36;78.91;99082.91;1639117;85;22087;-88
2020/12/20 06:39:24;;;;;;;;;;;;;;;3.38;78.87;99087.13;1660590;85;26344;-88
2020/12/20 06:42:10;;;;;;;;;;;;;;;3.38;78.87;99088.04;1663089;85;24647;-88
2020/12/20 06:44:57;;;;;;;;;;;;;;;3.38;78.86;99093.59;1665080;85;20459;-88
2020/12/20 06:47:45;;;;;;;;;;;;;;;3.40;78.86;99089.67;1661032;85;25717;-88
2020/12/20 06:50:31;;;;;;;;;;;;;;;3.46;78.83;99088.64;1668584;85;23097;-88
2020/12/20 06:53:20;;;;;;;;;;;;;;;3.52;78.81;99097.51;1636585;85;27052;-88
2020/12/20 06:56:06;;;;;;;;;;;;;;;3.48;78.81;99096.77;1660876;85;24869;-87
2020/12/20 06:58:56;;;;;;;;;;;;;;;3.38;78.77;99093.22;1663817;85;20612;-88
2020/12/20 07:01:42;;;;;;;;;;;;;;;3.31;78.75;99102.89;1657888;85;25052;-87
2020/12/20 07:04:29;;;;;;;;;;;;;;;3.31;78.71;99101.16;1662509;85;22264;-87
2020/12/20 07:07:15;;;;;;;;;;;;;;;3.25;78.69;99101.34;1660454;85;27053;-88
2020/12/20 07:10:02;;;;;;;;;;;;;;;3.20;78.66;99106.24;1661686;85;24645;-87
2020/12/20 07:12:50;;;;;;;;;;;;;;;3.22;78.63;99103.14;1654769;85;20352;-87
2020/12/20 07:15:36;;;;;;;;;;;;;;;3.22;78.61;99109.17;1663013;85;24906;-87
2020/12/20 07:18:26;;;;;;;;;;;;;;;3.15;78.59;99099.07;1659233;85;22349;-87
2020/12/20 07:21:13;;;;;;;;;;;;;;;3.15;78.56;99102.50;1694349;83;26373;-88
2020/12/20 07:23:49;;;;;;;;;;;;;;;3.09;78.56;99102.67;1699083;83;24789;-88
2020/12/20 07:26:36;;;;;;;;;;;;;;;2.99;78.55;99099.11;1695616;84;20491;-87
2020/12/20 07:29:24;;;;;;;;;;;;;;;2.93;78.53;99093.23;1695566;83;25749;-87
2020/12/20 07:32:10;;;;;;;;;;;;;;;2.89;78.53;99104.52;1695801;84;22143;-87
2020/12/20 07:34:59;;;;;;;;;;;;;;;2.93;78.51;99092.38;1693572;84;20804;-87
2020/12/20 07:37:45;;;;;;;;;;;;;;;2.95;78.54;99103.50;1692997;84;24580;-86
2020/12/20 07:40:33;;;;;;;;;;;;;;;2.94;78.56;99107.86;1693741;84;20274;-87
2020/12/20 07:43:19;;;;;;;;;;;;;;;2.99;78.55;99102.99;1709582;83;25674;-86
2020/12/20 07:46:09;;;;;;;;;;;;;;;3.03;78.59;99106.73;1698170;83;22205;-86
2020/12/20 07:48:56;;;;;;;;;;;;;;;3.07;78.62;99108.33;1695171;84;25920;-87
2020/12/20 07:51:43;;;;;;;;;;;;;;;3.12;78.65;99101.73;1706259;83;24605;-87
2020/12/20 07:54:30;;;;;;;;;;;;;;;3.16;78.68;99109.81;1699173;83;20374;-88
2020/12/20 07:57:17;;;;;;;;;;;;;;;3.23;78.72;99108.28;1693205;84;24931;-88
2020/12/20 08:00:11;;;;;;;;;;;;;;;3.32;78.73;99111.06;1675308;84;21951;-88
2020/12/20 08:02:58;;;;;;;;;;;;;;;3.38;78.78;99104.86;1696050;84;26119;-88
2020/12/20 08:05:45;;;;;;;;;;;;;;;3.42;78.82;99116.35;1708877;83;25283;-88
2020/12/20 08:08:32;;;;;;;;;;;;;;;3.47;78.85;99122.67;1694770;84;20278;-88
2020/12/20 08:11:20;;;;;;;;;;;;;;;3.54;78.86;99124.20;1699194;83;25009;-88
2020/12/20 08:14:08;;;;;;;;;;;;;;;3.64;78.91;99124.30;1695987;84;22175;-88
2020/12/20 08:16:54;;;;;;;;;;;;;;;3.72;78.90;99128.34;1697283;84;25635;-88
2020/12/20 08:19:40;;;;;;;;;;;;;;;3.84;78.95;99134.03;1700563;83;24485;-88
2020/12/20 08:22:27;;;;;;;;;;;;;;;3.87;78.98;99130.91;1696448;84;20575;-88
2020/12/20 08:25:17;;;;;;;;;;;;;;;3.92;79.01;99135.94;1698692;83;24189;-88
2020/12/20 08:28:05;;;;;;;;;;;;;;;3.87;79.05;99128.77;1676784;85;22336;-88
2020/12/20 08:30:52;;;;;;;;;;;;;;;3.72;79.09;99129.63;1691607;83;27591;-88
2020/12/20 08:33:40;;;;;;;;;;;;;;;3.67;79.09;99133.26;1678856;85;24631;-89
2020/12/20 08:36:26;;;;;;;;;;;;;;;3.76;79.07;99133.00;1693866;83;20193;-88
2020/12/20 08:39:13;;;;;;;;;;;;;;;3.75;79.08;99126.12;1657589;85;25336;-87
2020/12/20 08:42:00;;;;;;;;;;;;;;;3.76;79.09;99134.29;1706276;83;22147;-88
2020/12/20 08:44:49;;;;;;;;;;;;;;;3.92;79.07;99135.94;1697242;83;26069;-88
2020/12/20 08:47:36;;;;;;;;;;;;;;;4.01;79.10;99140.37;1700057;83;24398;-89
2020/12/20 08:50:23;;;;;;;;;;;;;;;4.03;79.12;99145.52;1706746;82;20623;-88
2020/12/20 08:53:09;;;;;;;;;;;;;;;4.20;79.14;99150.97;1701508;83;25170;-87
2020/12/20 08:55:56;;;;;;;;;;;;;;;4.25;79.16;99152.98;1682840;85;22996;-88
2020/12/20 08:58:48;;;;;;;;;;;;;;;4.25;79.16;99150.84;1684116;83;26348;-88
2020/12/20 09:01:35;;;;;;;;;;;;;;;4.20;79.19;99154.41;1679952;84;24691;-88
2020/12/20 09:04:24;;;;;;;;;;;;;;;4.16;79.18;99158.45;1657502;83;20349;-88
2020/12/20 09:07:00;;;;;;;;;;;;;;;4.12;79.16;99152.53;1654250;85;24760;-88
2020/12/20 09:09:47;;;;;;;;;;;;;;;4.09;79.17;99152.61;1671072;85;22140;-88
2020/12/20 09:12:33;;;;;;;;;;;;;;;4.05;79.16;99154.91;1671065;85;26206;-89
2020/12/20 09:15:19;;;;;;;;;;;;;;;4.06;79.14;99154.46;1728430;81;24635;-89
2020/12/20 09:18:06;;;;;;;;;;;;;;;4.14;79.13;99157.67;1748351;81;20274;-88
2020/12/20 09:20:56;;;;;;;;;;;;;;;4.09;79.13;99150.50;1718508;82;26030;-89
2020/12/20 09:23:42;;;;;;;;;;;;;;;3.84;79.13;99145.23;1744403;82;22096;-88
2020/12/20 09:26:28;;;;;;;;;;;;;;;3.66;79.13;99146.64;1718057;82;26091;-88
2020/12/20 09:29:16;;;;;;;;;;;;;;;3.62;79.07;99147.64;1740812;80;25001;-88
2020/12/20 09:32:05;;;;;;;;;;;;;;;3.64;79.06;99145.86;1704782;82;20545;-88
2020/12/20 09:34:52;;;;;;;;;;;;;;;3.63;79.03;99145.45;1702880;83;24962;-88
2020/12/20 09:37:41;;;;;;;;;;;;;;;3.61;79.03;99138.17;1703388;84;22380;-89
2020/12/20 09:40:27;;;;;;;;;;;;;;;3.58;79.03;99136.98;1675731;85;26145;-88
2020/12/20 09:43:14;;;;;;;;;;;;;;;3.44;79.04;99131.84;1706353;82;24627;-88
2020/12/20 09:46:01;;;;;;;;;;;;;;;3.33;79.06;99124.37;1674895;85;20525;-88
2020/12/20 09:48:48;;;;;;;;;;;;;;;3.26;79.04;99122.88;1703248;84;25207;-88
2020/12/20 09:51:35;;;;;;;;;;;;;;;3.18;79.04;99124.38;1695254;84;22098;-89
2020/12/20 09:54:22;;;;;;;;;;;;;;;3.14;79.03;99120.20;1645423;85;26335;-88
2020/12/20 09:57:09;;;;;;;;;;;;;;;3.10;79.02;99124.22;1634586;85;25564;-89
2020/12/20 09:59:56;;;;;;;;;;;;;;;3.04;79.04;99127.82;1681677;85;20479;-89
2020/12/20 10:02:42;;;;;;;;;;;;;;;2.97;79.08;99125.44;1681904;85;24878;-87
2020/12/20 10:05:29;;;;;;;;;;;;;;;2.89;79.08;99121.80;1683076;85;22088;-89
2020/12/20 10:08:17;;;;;;;;;;;;;;;2.78;79.12;99127.23;1684195;85;26137;-88
2020/12/20 10:11:06;;;;;;;;;;;;;;;2.69;79.14;99118.45;1682631;83;24640;-89
2020/12/20 10:13:54;;;;;;;;;;;;;;;2.69;79.15;99120.19;1668190;85;20514;-88
2020/12/20 10:16:41;;;;;;;;;;;;;;;2.67;79.19;99127.16;1665505;85;25879;-88
2020/12/20 10:19:28;;;;;;;;;;;;;;;2.59;79.22;99126.05;1667125;85;21973;-88
2020/12/20 10:22:15;;;;;;;;;;;;;;;2.56;79.26;99130.02;1681147;84;26191;-89
2020/12/20 10:25:03;;;;;;;;;;;;;;;2.54;79.29;99125.33;1678793;85;24639;-89
2020/12/20 10:27:52;;;;;;;;;;;;;;;2.55;79.32;99127.47;1656798;85;20268;-89
2020/12/20 10:30:41;;;;;;;;;;;;;;;2.52;79.38;99129.67;1679897;85;24920;-88
2020/12/20 10:33:28;;;;;;;;;;;;;;;2.43;79.43;99130.78;1677411;84;22178;-88
2020/12/20 10:36:14;;;;;;;;;;;;;;;2.42;79.47;99132.10;1678569;85;26582;-87
2020/12/20 10:39:02;;;;;;;;;;;;;;;2.42;79.51;99130.81;1679510;85;24686;-88
2020/12/20 10:41:52;;;;;;;;;;;;;;;2.41;79.53;99131.69;1668165;86;20606;-88
2020/12/20 10:44:39;;;;;;;;;;;;;;;2.38;79.60;99129.20;1701017;84;25760;-88
2020/12/20 10:47:26;;;;;;;;;;;;;;;2.37;79.63;99124.48;1696454;82;22124;-88
2020/12/20 10:50:16;;;;;;;;;;;;;;;2.43;79.66;99129.93;1691088;84;25647;-88
2020/12/20 10:53:02;;;;;;;;;;;;;;;2.48;79.71;99125.48;1700548;83;24598;-87
2020/12/20 10:55:51;;;;;;;;;;;;;;;2.55;79.76;99114.11;1679931;84;20651;-87
2020/12/20 10:58:39;;;;;;;;;;;;;;;2.66;79.80;99115.97;1670962;85;24921;-87
2020/12/20 11:01:25;;;;;;;;;;;;;;;2.67;79.89;99111.65;1694536;84;22094;-88
2020/12/20 11:04:12;;;;;;;;;;;;;;;2.67;79.95;99112.94;1699171;84;27654;-88
2020/12/20 11:07:01;;;;;;;;;;;;;;;2.68;79.99;99110.29;1696881;84;24684;-87
2020/12/20 11:09:49;;;;;;;;;;;;;;;2.70;80.05;99112.41;1699501;82;20242;-87
2020/12/20 11:12:40;;;;;;;;;;;;;;;2.77;80.09;99103.59;1699097;84;25740;-87
2020/12/20 11:15:26;;;;;;;;;;;;;;;2.76;80.14;99099.31;1700357;84;22382;-87
2020/12/20 11:18:16;;;;;;;;;;;;;;;2.77;80.18;99104.89;1695923;84;26355;-87
2020/12/20 11:21:03;;;;;;;;;;;;;;;2.83;80.22;99107.75;1690336;83;24884;-87
2020/12/20 11:23:49;;;;;;;;;;;;;;;2.91;80.24;99103.20;1661944;85;20358;-86
2020/12/20 11:26:36;;;;;;;;;;;;;;;2.95;80.31;99110.81;1653842;85;25846;-87
2020/12/20 11:29:23;;;;;;;;;;;;;;;2.99;80.32;99106.87;1641872;87;22120;-86
2020/12/20 11:32:10;;;;;;;;;;;;;;;3.12;80.35;99114.21;1643675;87;26410;-86
2020/12/20 11:34:57;;;;;;;;;;;;;;;3.20;80.41;99114.00;1643920;87;24829;-87
2020/12/20 11:37:45;;;;;;;;;;;;;;;3.37;80.45;99118.23;1632709;85;20429;-87
2020/12/20 11:40:31;;;;;;;;;;;;;;;3.57;80.49;99118.91;1682015;84;26012;-87
2020/12/20 11:43:18;;;;;;;;;;;;;;;3.77;80.54;99111.36;1656148;84;21784;-87
2020/12/20 11:46:07;;;;;;;;;;;;;;;3.97;80.59;99112.89;1702118;82;27006;-87
2020/12/20 11:48:55;;;;;;;;;;;;;;;3.97;80.69;99121.10;1682307;82;24397;-88
2020/12/20 11:51:44;;;;;;;;;;;;;;;3.87;80.75;99115.38;1706465;82;20520;-88
2020/12/20 11:54:31;;;;;;;;;;;;;;;3.76;80.78;99114.40;1691416;82;25713;-88
2020/12/20 11:57:18;;;;;;;;;;;;;;;3.69;80.78;99112.92;1711619;82;22929;-88
2020/12/20 12:00:05;;;;;;;;;;;;;;;3.56;80.75;99113.33;1718993;82;26004;-87
2020/12/20 12:02:52;;;;;;;;;;;;;;;3.49;80.72;99106.20;1710780;82;24572;-87
2020/12/20 12:05:39;;;;;;;;;;;;;;;3.52;80.71;99111.30;1718570;82;20579;-88
2020/12/20 12:08:25;;;;;;;;;;;;;;;3.54;80.67;99108.22;1686175;82;25478;-88
2020/12/20 12:11:11;;;;;;;;;;;;;;;3.54;80.65;99104.34;1657278;84;22403;-87
2020/12/20 12:14:01;;;;;;;;;;;;;;;3.53;80.67;99103.09;1673180;84;26135;-87
2020/12/20 12:16:48;;;;;;;;;;;;;;;3.45;80.69;99103.31;1641924;86;25558;-88
2020/12/20 12:19:34;;;;;;;;;;;;;;;3.34;80.67;99109.25;1643830;86;20310;-88
2020/12/20 12:22:26;;;;;;;;;;;;;;;3.29;80.65;99102.93;1627630;85;24645;-88
2020/12/20 12:25:13;;;;;;;;;;;;;;;3.27;80.65;99100.00;1650873;85;21909;-88
2020/12/20 12:28:02;;;;;;;;;;;;;;;3.26;80.62;99100.89;1649511;85;26200;-88
2020/12/20 12:30:49;;;;;;;;;;;;;;;3.26;80.63;99106.06;1652516;85;24720;-88
2020/12/20 12:33:36;;;;;;;;;;;;;;;3.23;80.62;99097.94;1680947;85;20303;-87
2020/12/20 12:36:23;;;;;;;;;;;;;;;3.19;80.64;99096.34;1672315;85;24926;-87
2020/12/20 12:39:10;;;;;;;;;;;;;;;3.12;80.66;99101.73;1667925;85;22932;-87
2020/12/20 12:41:57;;;;;;;;;;;;;;;3.05;80.66;99095.06;1670723;85;26102;-87
2020/12/20 12:44:44;;;;;;;;;;;;;;;3.00;80.64;99087.41;1650127;85;24411;-87
2020/12/20 12:47:31;;;;;;;;;;;;;;;2.92;80.66;99094.11;1671075;85;20386;-87
2020/12/20 12:50:17;;;;;;;;;;;;;;;2.90;80.66;99092.45;1657019;86;24637;-87
2020/12/20 12:53:05;;;;;;;;;;;;;;;2.85;80.65;99084.83;1630662;84;21827;-87
2020/12/20 12:55:53;;;;;;;;;;;;;;;2.84;80.66;99089.59;1651377;86;27015;-87
2020/12/20 12:58:40;;;;;;;;;;;;;;;2.85;80.66;99092.58;1652168;86;25393;-87
2020/12/20 13:01:28;;;;;;;;;;;;;;;2.87;80.71;99086.09;1669135;85;20346;-87
2020/12/20 13:04:15;;;;;;;;;;;;;;;2.82;80.73;99087.52;1649032;86;24915;-87
2020/12/20 13:07:03;;;;;;;;;;;;;;;2.82;80.78;99088.81;1660261;85;22292;-87
2020/12/20 13:09:50;;;;;;;;;;;;;;;2.83;80.80;99084.05;1655304;86;26127;-87
2020/12/20 13:12:39;;;;;;;;;;;;;;;2.83;80.82;99084.05;1664860;85;25630;-87
2020/12/20 13:15:26;;;;;;;;;;;;;;;2.81;80.84;99076.77;1666674;84;20442;-87
2020/12/20 13:18:13;;;;;;;;;;;;;;;2.89;80.86;99094.66;1662194;86;25071;-87
2020/12/20 13:21:01;;;;;;;;;;;;;;;2.90;80.91;99093.73;1668816;86;22053;-87
2020/12/20 13:23:48;;;;;;;;;;;;;;;2.84;80.93;99105.10;1668917;85;26237;-87
2020/12/20 13:26:35;;;;;;;;;;;;;;;2.78;80.94;99098.81;1667570;86;24644;-87
2020/12/20 13:29:21;;;;;;;;;;;;;;;2.78;80.96;99103.98;1652739;86;20345;-87
2020/12/20 13:32:08;;;;;;;;;;;;;;;2.81;80.99;99103.05;1671246;84;25023;-88
2020/12/20 13:34:56;;;;;;;;;;;;;;;2.81;81.02;99098.73;1652399;86;21928;-86
2020/12/20 13:37:44;;;;;;;;;;;;;;;2.75;81.05;99097.61;1650225;85;26409;-87
2020/12/20 13:40:32;;;;;;;;;;;;;;;2.71;81.04;99102.47;1670855;85;24729;-86
2020/12/20 13:43:19;;;;;;;;;;;;;;;2.67;81.09;99105.19;1666032;85;20614;-86
2020/12/20 13:46:05;;;;;;;;;;;;;;;2.68;81.10;99102.54;1670811;84;25005;-86
2020/12/20 13:48:51;;;;;;;;;;;;;;;2.68;81.10;99110.29;1669799;85;22192;-87
2020/12/20 13:51:40;;;;;;;;;;;;;;;2.68;81.12;99111.58;1667395;85;26154;-87
2020/12/20 13:54:29;;;;;;;;;;;;;;;2.65;81.13;99115.56;1668088;85;25609;-86
2020/12/20 13:57:19;;;;;;;;;;;;;;;2.66;81.14;99119.84;1669247;85;20280;-87
2020/12/20 14:00:06;;;;;;;;;;;;;;;2.69;81.16;99111.14;1670602;85;24927;-86
2020/12/20 14:02:53;;;;;;;;;;;;;;;2.66;81.21;99118.99;1666228;85;23083;-87
2020/12/20 14:05:41;;;;;;;;;;;;;;;2.69;81.19;99105.97;1669418;85;26206;-87
2020/12/20 14:08:27;;;;;;;;;;;;;;;2.66;81.21;99108.66;1655327;85;24598;-87
2020/12/20 14:11:17;;;;;;;;;;;;;;;2.71;81.21;99106.35;1682993;84;20363;-87
2020/12/20 14:14:04;;;;;;;;;;;;;;;2.78;81.23;99100.09;1679737;84;24914;-88
2020/12/20 14:16:50;;;;;;;;;;;;;;;2.78;81.26;99103.16;1675952;84;22331;-86
2020/12/20 14:19:39;;;;;;;;;;;;;;;2.84;81.26;99103.80;1642788;86;26104;-87
2020/12/20 14:22:25;;;;;;;;;;;;;;;2.81;81.32;99106.49;1678160;84;25504;-87
2020/12/20 14:25:15;;;;;;;;;;;;;;;2.77;81.33;99104.89;1684679;84;20451;-87
2020/12/20 14:28:03;;;;;;;;;;;;;;;2.67;81.36;99103.45;1691761;84;26146;-88
2020/12/20 14:30:50;;;;;;;;;;;;;;;2.50;81.36;99108.22;1689207;84;23610;-88
2020/12/20 14:33:36;;;;;;;;;;;;;;;2.43;81.33;99096.35;1687058;85;26145;-88
2020/12/20 14:36:23;;;;;;;;;;;;;;;2.31;81.32;99097.95;1686527;85;24643;-87
2020/12/20 14:39:12;;;;;;;;;;;;;;;2.19;81.30;99096.97;1686046;85;20535;-88
2020/12/20 14:42:03;;;;;;;;;;;;;;;2.08;81.26;99088.21;1696326;84;25206;-88